createdAt,value
2022-11-04T00:04:37.983Z,997.83
2022-11-04T00:11:01.005Z,997.93
2022-11-04T00:17:21.050Z,997.97
2022-11-04T00:23:43.978Z,998.11
2022-11-04T00:30:03.983Z,998.11
2022-11-04T00:36:26.992Z,998.21
2022-11-04T00:42:47.043Z,998.3
2022-11-04T00:49:10.023Z,998.46
2022-11-04T00:55:30.015Z,998.5
2022-11-04T01:01:53.109Z,998.54
2022-11-04T01:08:12.981Z,998.62
2022-11-04T01:14:36.005Z,998.68
2022-11-04T01:20:55.964Z,998.77
2022-11-04T01:27:18.989Z,998.87
2022-11-04T01:33:39.003Z,998.95
2022-11-04T01:40:02.020Z,999.07
2022-11-04T01:46:21.982Z,999.13
2022-11-04T01:52:45.034Z,999.15
2022-11-04T01:59:04.999Z,999.15
2022-11-04T02:05:27.998Z,999.11
2022-11-04T02:11:48.016Z,999.07
2022-11-04T02:18:11.035Z,999.09
2022-11-04T02:24:31.000Z,999.13
2022-11-04T02:30:54.008Z,999.11
2022-11-04T02:37:13.983Z,998.99
2022-11-04T02:43:36.997Z,999.01
2022-11-04T02:49:57.023Z,998.93
2022-11-04T02:56:20.004Z,998.97
2022-11-04T03:02:39.982Z,998.89
2022-11-04T03:09:03.058Z,998.83
2022-11-04T03:15:22.969Z,998.79
2022-11-04T03:21:46.007Z,998.77
2022-11-04T03:28:06.359Z,998.73
2022-11-04T03:34:28.985Z,998.75
2022-11-04T03:40:48.969Z,998.81
2022-11-04T03:47:12.011Z,998.83
2022-11-04T03:53:31.992Z,998.81
2022-11-04T03:59:55.005Z,998.77
2022-11-04T04:06:15.003Z,998.73
2022-11-04T04:12:37.994Z,998.68
2022-11-04T04:18:58.694Z,998.77
2022-11-04T04:42:40.009Z,999.07
2022-11-04T04:49:02.980Z,999.13
2022-11-04T04:55:23.000Z,999.09
2022-11-04T05:01:46.201Z,999.11
2022-11-04T05:08:06.248Z,999.07
2022-11-04T05:14:28.968Z,999.07
2022-11-04T05:20:49.022Z,999.05
2022-11-04T05:27:11.997Z,999.01
2022-11-04T05:33:32.031Z,998.95
2022-11-04T05:39:55.005Z,998.93
2022-11-04T05:46:14.965Z,998.93
2022-11-04T05:52:37.995Z,998.97
2022-11-04T05:58:58.030Z,999.03
2022-11-04T06:05:20.990Z,999.11
2022-11-04T06:11:41.014Z,999.24
2022-11-04T06:18:04.004Z,999.32
2022-11-04T06:24:23.979Z,999.36
2022-11-04T06:30:46.988Z,999.44
2022-11-04T06:37:06.992Z,999.52
2022-11-04T06:43:30.045Z,999.62
2022-11-04T06:49:49.998Z,999.67
2022-11-04T06:56:13.121Z,999.71
2022-11-04T07:02:33.091Z,999.79
2022-11-04T07:08:55.982Z,999.89
2022-11-04T07:15:16.055Z,1000.01
2022-11-04T07:21:38.983Z,1000.11
2022-11-04T07:28:01.039Z,1000.24
2022-11-04T07:34:22.021Z,1000.39
2022-11-04T07:40:41.994Z,1000.42
2022-11-04T07:47:04.992Z,1000.39
2022-11-04T07:53:25.015Z,1000.39
2022-11-04T07:59:47.999Z,1000.41
2022-11-04T08:06:07.976Z,1000.44
2022-11-04T08:12:31.038Z,1000.46
2022-11-04T08:18:51.010Z,1000.44
2022-11-04T08:25:15.255Z,1000.5
2022-11-04T08:31:35.006Z,1000.62
2022-11-04T08:37:58.012Z,1000.68
2022-11-04T08:44:17.978Z,1000.74
2022-11-04T08:50:41.042Z,1000.74
2022-11-04T08:57:01.087Z,1000.72
2022-11-04T09:03:24.189Z,1000.66
2022-11-04T09:09:44.215Z,1000.66
2022-11-04T09:16:06.988Z,1000.66
2022-11-04T09:22:27.027Z,1000.64
2022-11-04T09:28:50.140Z,1000.56
2022-11-04T09:50:59.099Z,1000.54
2022-11-04T09:57:21.990Z,1000.56
2022-11-04T10:03:42.028Z,1000.58
2022-11-04T10:10:05.344Z,1000.62
2022-11-04T10:16:24.989Z,1000.68
2022-11-04T10:22:47.982Z,1000.72
2022-11-04T10:29:08.198Z,1000.76
2022-11-04T10:35:31.171Z,1000.8
2022-11-04T10:41:51.132Z,1000.84
2022-11-04T10:48:14.145Z,1000.8
2022-11-04T10:54:34.001Z,1000.82
2022-11-04T11:00:57.018Z,1000.91
2022-11-04T11:07:17.016Z,1000.93
2022-11-04T11:13:40.086Z,1000.99
2022-11-04T11:20:00.008Z,1001.01
2022-11-04T11:26:23.192Z,1001.03
2022-11-04T11:32:43.015Z,1001.05
2022-11-04T11:39:06.037Z,1001.01
2022-11-04T11:45:26.320Z,1001.05
2022-11-04T11:51:48.990Z,1001.05
2022-11-04T12:10:52.619Z,1000.99
2022-11-04T12:17:14.987Z,1001.01
2022-11-04T12:23:35.007Z,1001.01
2022-11-04T12:29:58.002Z,1000.99
2022-11-04T12:36:17.982Z,1001.07
2022-11-04T12:42:41.010Z,1001.09
2022-11-04T12:49:06.079Z,1001.09
2022-11-04T12:55:23.984Z,1001.15
2022-11-04T13:01:44.173Z,1001.19
2022-11-04T13:08:11.293Z,1001.23
2022-11-04T13:14:27.003Z,1001.23
2022-11-04T13:20:50.020Z,1001.31
2022-11-04T13:27:09.971Z,1001.36
2022-11-04T13:33:33.025Z,1001.4
2022-11-04T13:39:52.998Z,1001.52
2022-11-04T13:46:16.016Z,1001.58
2022-11-04T13:52:35.968Z,1001.62
2022-11-04T13:58:59.050Z,1001.68
2022-11-04T14:05:18.983Z,1001.82
2022-11-04T14:11:41.971Z,1001.85
2022-11-04T14:18:01.990Z,1001.93
2022-11-04T14:24:24.999Z,1002.01
2022-11-04T14:30:44.999Z,1002.11
2022-11-04T14:37:07.991Z,1002.21
2022-11-04T14:43:28.001Z,1002.32
2022-11-04T15:00:24.601Z,1002.58
2022-11-04T15:06:58.845Z,1002.74
2022-11-04T15:13:07.320Z,1002.81
2022-11-04T15:19:26.980Z,1002.98
2022-11-04T15:25:50.008Z,1003.07
2022-11-04T15:32:09.997Z,1003.19
2022-11-04T15:38:32.977Z,1003.29
2022-11-04T15:44:53.013Z,1003.35
2022-11-04T15:51:15.994Z,1003.39
2022-11-04T15:57:35.967Z,1003.49
2022-11-04T16:03:59.161Z,1003.58
2022-11-04T16:10:18.988Z,1003.7
2022-11-04T16:16:41.997Z,1003.8
2022-11-04T16:23:02.018Z,1003.94
2022-11-04T16:29:24.983Z,1004.01
2022-11-04T16:35:44.985Z,1004.09
2022-11-04T16:42:07.995Z,1004.17
2022-11-04T16:48:27.981Z,1004.29
2022-11-04T16:54:50.983Z,1004.35
2022-11-04T17:01:11.021Z,1004.41
2022-11-04T17:07:51.367Z,1004.45
2022-11-04T17:13:53.996Z,1004.56
2022-11-04T17:20:17.010Z,1004.6
2022-11-04T17:26:36.985Z,1004.68
2022-11-04T17:32:59.982Z,1004.78
2022-11-04T17:39:20.022Z,1004.92
2022-11-04T17:45:42.971Z,1004.92
2022-11-04T17:52:02.990Z,1005.01
2022-11-04T17:58:26.041Z,1005.11
2022-11-04T18:04:45.979Z,1005.17
2022-11-04T18:11:08.984Z,1005.23
2022-11-04T18:17:28.995Z,1005.33
2022-11-04T18:23:51.993Z,1005.49
2022-11-04T18:30:11.994Z,1005.57
2022-11-04T18:36:35.008Z,1005.59
2022-11-04T18:42:54.996Z,1005.63
2022-11-04T18:49:17.977Z,1005.71
2022-11-04T18:55:38.027Z,1005.74
2022-11-04T19:02:01.251Z,1005.8
2022-11-04T19:08:20.982Z,1005.82
2022-11-04T19:14:44.011Z,1005.88
2022-11-04T19:21:03.974Z,1005.94
2022-11-04T19:27:26.974Z,1006.02
2022-11-04T19:33:47.111Z,1006.14
2022-11-04T19:40:09.977Z,1006.23
2022-11-04T19:46:30.017Z,1006.33
2022-11-04T19:52:53.029Z,1006.35
2022-11-04T19:59:12.985Z,1006.47
2022-11-04T20:05:35.987Z,1006.51
2022-11-04T20:30:00.137Z,1006.82
2022-11-04T20:36:23.013Z,1006.9
2022-11-04T20:42:42.979Z,1006.98
2022-11-04T20:49:06.108Z,1007.04
2022-11-04T20:55:25.987Z,1007.19
2022-11-04T21:01:49.120Z,1007.33
2022-11-04T21:08:09.287Z,1007.45
2022-11-04T21:14:31.987Z,1007.52
2022-11-04T21:20:51.988Z,1007.58
2022-11-04T21:27:15.030Z,1007.66
2022-11-04T21:33:34.976Z,1007.74
2022-11-04T21:39:58.182Z,1007.8
2022-11-04T21:46:18.042Z,1007.88
2022-11-04T21:52:40.967Z,1007.94
2022-11-04T21:59:00.987Z,1008.12
2022-11-04T22:05:24.005Z,1008.24
2022-11-04T22:11:43.974Z,1008.28
2022-11-04T22:18:06.987Z,1008.28
2022-11-04T22:24:27.100Z,1008.28
2022-11-04T22:30:49.981Z,1008.3
2022-11-04T22:37:09.997Z,1008.32
2022-11-04T22:43:33.028Z,1008.37
2022-11-04T22:49:52.985Z,1008.37
2022-11-04T22:56:15.982Z,1008.45
2022-11-04T23:20:30.996Z,1008.88
2022-11-04T23:26:50.994Z,1008.92
2022-11-04T23:33:14.297Z,1008.98
2022-11-04T23:39:34.003Z,1009
2022-11-04T23:45:57.015Z,1009.02
2022-11-04T23:52:16.979Z,1009.02
2022-11-04T23:58:40.018Z,1009.08
